createdAt,value
2018-04-12T00:00:08.382Z,0
2018-04-12T00:01:08.249Z,0
2018-04-12T00:02:07.920Z,0
2018-04-12T00:03:08.192Z,0
2018-04-12T00:04:08.476Z,0
2018-04-12T00:05:08.494Z,0
2018-04-12T00:06:08.533Z,0
2018-04-12T00:07:08.026Z,0
2018-04-12T00:08:08.052Z,0
2018-04-12T00:09:08.325Z,0
2018-04-12T00:10:08.365Z,0
2018-04-12T00:11:08.431Z,0
2018-04-12T00:12:08.400Z,0
2018-04-12T00:13:08.433Z,0
2018-04-12T00:14:08.446Z,0
2018-04-12T00:15:08.237Z,0
2018-04-12T00:16:08.499Z,0
2018-04-12T00:17:08.531Z,0
2018-04-12T00:18:08.540Z,0
2018-04-12T00:19:08.561Z,0
2018-04-12T00:20:08.587Z,0
2018-04-12T00:21:08.620Z,0
2018-04-12T00:22:08.631Z,0
2018-04-12T00:23:08.660Z,0
2018-04-12T00:24:08.659Z,0
2018-04-12T00:25:08.439Z,0
2018-04-12T00:26:08.705Z,0
2018-04-12T00:27:08.735Z,0
2018-04-12T00:28:08.762Z,0
2018-04-12T00:29:08.603Z,0
2018-04-12T00:30:08.841Z,0
2018-04-12T00:31:08.860Z,0
2018-04-12T00:32:08.917Z,0
2018-04-12T00:33:08.894Z,0
2018-04-12T00:34:08.918Z,0
2018-04-12T00:35:08.943Z,0
2018-04-12T00:36:08.969Z,0
2018-04-12T00:37:08.983Z,0
2018-04-12T00:38:08.500Z,0
2018-04-12T00:39:09.025Z,0
2018-04-12T00:40:09.308Z,0
2018-04-12T00:41:09.081Z,0
2018-04-12T00:42:08.853Z,0
2018-04-12T00:43:09.394Z,0
2018-04-12T00:44:09.447Z,0
2018-04-12T00:45:09.175Z,0
2018-04-12T00:46:08.939Z,0
2018-04-12T00:47:08.960Z,0
2018-04-12T00:48:09.515Z,0
2018-04-12T00:49:09.258Z,0
2018-04-12T00:50:09.027Z,0
2018-04-12T00:51:09.311Z,0
2018-04-12T00:52:09.327Z,0
2018-04-12T00:53:09.607Z,0
2018-04-12T00:54:09.632Z,0
2018-04-12T00:55:09.405Z,0
2018-04-12T00:56:09.167Z,0
2018-04-12T00:57:09.698Z,0
2018-04-12T00:58:09.708Z,0
2018-04-12T00:59:09.784Z,0
2018-04-12T01:00:09.780Z,0
2018-04-12T01:01:09.789Z,0
2018-04-12T01:02:09.305Z,0
2018-04-12T01:03:09.328Z,0
2018-04-12T01:04:09.351Z,0
2018-04-12T01:05:09.885Z,0
2018-04-12T01:06:09.655Z,0
2018-04-12T01:07:09.413Z,0
2018-04-12T01:08:09.184Z,0
2018-04-12T01:09:10.014Z,0
2018-04-12T01:10:09.733Z,0
2018-04-12T01:11:09.751Z,0
2018-04-12T01:12:10.024Z,0
2018-04-12T01:13:09.545Z,0
2018-04-12T01:14:10.079Z,0
2018-04-12T01:15:09.629Z,0
2018-04-12T01:16:09.862Z,0
2018-04-12T01:17:09.645Z,0
2018-04-12T01:18:10.209Z,0
2018-04-12T01:19:10.206Z,0
2018-04-12T01:20:09.964Z,0
2018-04-12T01:21:10.244Z,0
2018-04-12T01:22:10.013Z,0
2018-04-12T01:23:10.041Z,0
2018-04-12T01:24:10.360Z,0
2018-04-12T01:25:10.081Z,0
2018-04-12T01:26:10.120Z,0
2018-04-12T01:27:10.427Z,0
2018-04-12T01:28:10.145Z,0
2018-04-12T01:29:09.918Z,0
2018-04-12T01:30:10.191Z,0
2018-04-12T01:31:10.213Z,0
2018-04-12T01:32:09.986Z,0
2018-04-12T01:33:10.516Z,0
2018-04-12T01:34:10.543Z,0
2018-04-12T01:35:10.311Z,0
2018-04-12T01:36:10.328Z,0
2018-04-12T01:37:10.625Z,0
2018-04-12T01:38:10.121Z,0
2018-04-12T01:39:10.186Z,0
2018-04-12T01:40:10.414Z,0
2018-04-12T01:41:10.459Z,0
2018-04-12T01:42:10.738Z,0
2018-04-12T01:43:10.741Z,0
2018-04-12T01:44:10.503Z,0
2018-04-12T01:45:10.526Z,0
2018-04-12T01:46:10.815Z,0
2018-04-12T01:47:10.571Z,0
2018-04-12T01:48:10.596Z,0
2018-04-12T01:49:10.613Z,0
2018-04-12T01:50:10.635Z,0
2018-04-12T01:51:10.920Z,0
2018-04-12T01:52:10.188Z,0
2018-04-12T01:53:10.205Z,0
2018-04-12T01:54:10.776Z,0
2018-04-12T01:55:10.491Z,0
2018-04-12T01:56:10.763Z,0
2018-04-12T01:57:10.664Z,0
2018-04-12T01:58:10.555Z,0
2018-04-12T01:59:10.838Z,0
2018-04-12T02:00:11.109Z,0
2018-04-12T02:01:10.879Z,0
2018-04-12T02:02:10.896Z,0
2018-04-12T02:03:10.918Z,0
2018-04-12T02:04:11.199Z,0
2018-04-12T02:05:10.470Z,0
2018-04-12T02:06:11.260Z,0
2018-04-12T02:07:10.742Z,0
2018-04-12T02:08:11.268Z,0
2018-04-12T02:09:11.385Z,0
2018-04-12T02:10:11.352Z,0
2018-04-12T02:11:11.369Z,0
2018-04-12T02:12:11.129Z,0
2018-04-12T02:13:11.165Z,0
2018-04-12T02:14:11.431Z,0
2018-04-12T02:15:11.286Z,0
2018-04-12T02:16:11.473Z,0
2018-04-12T02:17:11.241Z,0
2018-04-12T02:18:11.691Z,0
2018-04-12T02:19:11.305Z,0
2018-04-12T02:20:11.318Z,0
2018-04-12T02:21:11.337Z,0
2018-04-12T02:22:11.606Z,0
2018-04-12T02:23:11.634Z,0
2018-04-12T02:24:11.653Z,0
2018-04-12T02:25:11.431Z,0
2018-04-12T02:26:11.718Z,0
2018-04-12T02:27:11.717Z,0
2018-04-12T02:28:11.241Z,0
2018-04-12T02:29:11.765Z,0
2018-04-12T02:30:11.855Z,0
2018-04-12T02:31:11.554Z,0
2018-04-12T02:32:11.597Z,0
2018-04-12T02:33:11.610Z,0
2018-04-12T02:34:11.886Z,0
2018-04-12T02:35:11.761Z,0
2018-04-12T02:36:11.686Z,0
2018-04-12T02:37:11.691Z,0
2018-04-12T02:38:11.969Z,0
2018-04-12T02:39:11.733Z,0
2018-04-12T02:40:12.004Z,0
2018-04-12T02:41:11.518Z,0
2018-04-12T02:42:12.040Z,0
2018-04-12T02:43:11.820Z,0
2018-04-12T02:44:11.583Z,0
2018-04-12T02:45:11.863Z,0
2018-04-12T02:46:12.139Z,0
2018-04-12T02:47:11.908Z,0
2018-04-12T02:48:11.922Z,0
2018-04-12T02:49:11.962Z,0
2018-04-12T02:50:11.984Z,0
2018-04-12T02:51:12.310Z,0
2018-04-12T02:52:12.046Z,0
2018-04-12T02:53:12.305Z,0
2018-04-12T02:54:12.340Z,0
2018-04-12T02:55:12.088Z,0
2018-04-12T02:56:12.117Z,0
2018-04-12T02:57:12.395Z,0
2018-04-12T02:58:12.414Z,0
2018-04-12T02:59:12.434Z,0
2018-04-12T03:00:12.459Z,0
2018-04-12T03:01:12.237Z,0
2018-04-12T03:02:11.985Z,0
2018-04-12T03:03:12.522Z,0
2018-04-12T03:04:12.292Z,0
2018-04-12T03:05:12.611Z,0
2018-04-12T03:06:12.330Z,0
2018-04-12T03:07:12.347Z,0
2018-04-12T03:08:12.638Z,0
2018-04-12T03:09:12.406Z,0
2018-04-12T03:10:12.162Z,0
2018-04-12T03:11:12.749Z,0
2018-04-12T03:12:12.461Z,0
2018-04-12T03:13:12.226Z,0
2018-04-12T03:14:12.537Z,0
2018-04-12T03:15:12.776Z,0
2018-04-12T03:16:12.531Z,0
2018-04-12T03:17:12.832Z,0
2018-04-12T03:18:12.581Z,0
2018-04-12T03:19:12.858Z,0
2018-04-12T03:20:12.627Z,0
2018-04-12T03:21:12.907Z,0
2018-04-12T03:22:12.926Z,0
2018-04-12T03:23:12.688Z,0
2018-04-12T03:24:12.207Z,0
2018-04-12T03:25:12.981Z,0
2018-04-12T03:26:13.053Z,0
2018-04-12T03:27:13.020Z,0
2018-04-12T03:28:13.042Z,0
2018-04-12T03:29:12.811Z,0
2018-04-12T03:30:12.844Z,0
2018-04-12T03:31:13.110Z,0
2018-04-12T03:32:12.875Z,0
2018-04-12T03:33:12.912Z,0
2018-04-12T03:34:12.918Z,0
2018-04-12T03:35:13.245Z,0
2018-04-12T03:36:13.231Z,0
2018-04-12T03:37:13.266Z,0
2018-04-12T03:38:13.020Z,0
2018-04-12T03:39:12.787Z,0
2018-04-12T03:40:13.344Z,0
2018-04-12T03:41:13.132Z,0
2018-04-12T03:42:13.289Z,0
2018-04-12T03:43:13.382Z,0
2018-04-12T03:44:13.402Z,0
2018-04-12T03:45:13.181Z,0
2018-04-12T03:46:12.941Z,0
2018-04-12T03:47:12.963Z,0
2018-04-12T03:48:13.485Z,0
2018-04-12T03:49:13.188Z,0
2018-04-12T03:50:13.539Z,0
2018-04-12T03:51:13.564Z,4
2018-04-12T03:52:13.585Z,4
2018-04-12T03:53:13.090Z,4
2018-04-12T03:54:13.618Z,4
2018-04-12T03:55:13.646Z,4
2018-04-12T03:56:13.801Z,4
2018-04-12T03:57:13.672Z,4
2018-04-12T03:58:13.443Z,4
2018-04-12T03:59:13.715Z,4
2018-04-12T04:00:13.494Z,4
2018-04-12T04:01:13.761Z,4
2018-04-12T04:02:13.529Z,0
2018-04-12T04:03:13.803Z,4
2018-04-12T04:04:13.820Z,4
2018-04-12T04:05:13.857Z,4
2018-04-12T04:06:13.888Z,8
2018-04-12T04:07:13.649Z,4
2018-04-12T04:08:13.675Z,8
2018-04-12T04:09:13.943Z,8
2018-04-12T04:10:13.715Z,8
2018-04-12T04:11:13.800Z,12
2018-04-12T04:12:13.761Z,12
2018-04-12T04:13:14.042Z,12
2018-04-12T04:14:13.805Z,16
2018-04-12T04:15:13.823Z,16
2018-04-12T04:16:14.109Z,16
2018-04-12T04:17:14.120Z,24
2018-04-12T04:18:13.628Z,24
2018-04-12T04:19:14.157Z,32
2018-04-12T04:20:14.181Z,36
2018-04-12T04:21:14.219Z,40
2018-04-12T04:22:13.719Z,40
2018-04-12T04:23:13.990Z,52
2018-04-12T04:24:14.270Z,56
2018-04-12T04:25:14.034Z,64
2018-04-12T04:26:14.358Z,68
2018-04-12T04:27:14.086Z,76
2018-04-12T04:28:13.596Z,84
2018-04-12T04:29:14.119Z,96
2018-04-12T04:30:14.400Z,108
2018-04-12T04:31:14.419Z,116
2018-04-12T04:32:14.447Z,132
2018-04-12T04:33:14.470Z,144
2018-04-12T04:34:14.491Z,164
2018-04-12T04:35:14.513Z,180
2018-04-12T04:36:14.523Z,200
2018-04-12T04:37:14.549Z,220
2018-04-12T04:38:14.324Z,252
2018-04-12T04:39:14.345Z,276
2018-04-12T04:40:14.110Z,304
2018-04-12T04:41:14.688Z,332
2018-04-12T04:42:14.419Z,364
2018-04-12T04:43:14.696Z,392
2018-04-12T04:44:14.730Z,420
2018-04-12T04:45:14.472Z,444
2018-04-12T04:46:14.499Z,468
2018-04-12T04:47:14.778Z,484
2018-04-12T04:48:14.614Z,504
2018-04-12T04:49:14.816Z,524
2018-04-12T04:50:14.842Z,548
2018-04-12T04:51:14.601Z,572
2018-04-12T04:52:14.885Z,592
2018-04-12T04:53:14.903Z,620
2018-04-12T04:54:14.929Z,636
2018-04-12T04:55:14.690Z,660
2018-04-12T04:56:14.766Z,680
2018-04-12T04:57:14.240Z,708
2018-04-12T04:58:15.012Z,740
2018-04-12T04:59:15.027Z,768
2018-04-12T05:00:14.811Z,800
2018-04-12T05:01:14.568Z,832
2018-04-12T05:02:14.836Z,864
2018-04-12T05:03:15.112Z,896
2018-04-12T05:04:14.883Z,928
2018-04-12T05:05:14.918Z,964
2018-04-12T05:06:15.234Z,1000
2018-04-12T05:07:15.043Z,1040
2018-04-12T05:08:15.222Z,1076
2018-04-12T05:09:15.247Z,1120
2018-04-12T05:10:15.017Z,1160
2018-04-12T05:11:15.040Z,1192
2018-04-12T05:12:15.312Z,1236
2018-04-12T05:13:15.331Z,1276
2018-04-12T05:14:15.372Z,1480
2018-04-12T05:15:14.869Z,1544
2018-04-12T05:16:15.396Z,1588
2018-04-12T05:17:15.200Z,1628
2018-04-12T05:18:15.441Z,1668
2018-04-12T05:19:15.215Z,1704
2018-04-12T05:20:15.232Z,1744
2018-04-12T05:21:15.301Z,1784
2018-04-12T05:22:15.271Z,1824
2018-04-12T05:23:15.552Z,1860
2018-04-12T05:24:15.570Z,1880
2018-04-12T05:25:15.589Z,1932
2018-04-12T05:26:15.610Z,1960
2018-04-12T05:27:15.127Z,1992
2018-04-12T05:28:15.724Z,2028
2018-04-12T05:29:15.422Z,2076
2018-04-12T05:30:15.445Z,2108
2018-04-12T05:31:15.722Z,2136
2018-04-12T05:32:15.489Z,2196
2018-04-12T05:33:15.862Z,2216
2018-04-12T05:34:15.037Z,2268
2018-04-12T05:35:15.571Z,2304
2018-04-12T05:36:15.580Z,2372
2018-04-12T05:37:15.605Z,2380
2018-04-12T05:38:15.625Z,2452
2018-04-12T05:39:15.645Z,2500
2018-04-12T05:40:15.411Z,2576
2018-04-12T05:41:15.438Z,2640
2018-04-12T05:42:15.971Z,2664
2018-04-12T05:43:16.040Z,2724
2018-04-12T05:44:15.754Z,2780
2018-04-12T05:45:16.027Z,2876
2018-04-12T05:46:16.060Z,2944
2018-04-12T05:47:15.813Z,3008
2018-04-12T05:48:15.827Z,3064
2018-04-12T05:49:16.130Z,3132
2018-04-12T05:50:15.887Z,3192
2018-04-12T05:51:15.922Z,3236
2018-04-12T05:52:16.189Z,3288
2018-04-12T05:53:15.696Z,3336
2018-04-12T05:54:16.226Z,3372
2018-04-12T05:55:15.993Z,3424
2018-04-12T05:56:16.279Z,3480
2018-04-12T05:57:16.040Z,3524
2018-04-12T05:58:16.373Z,3568
2018-04-12T05:59:16.078Z,3612
2018-04-12T06:00:16.354Z,3652
2018-04-12T06:01:16.123Z,3676
2018-04-12T06:02:16.396Z,3704
2018-04-12T06:03:16.231Z,3728
2018-04-12T06:04:16.445Z,3744
2018-04-12T06:05:15.958Z,3768
2018-04-12T06:06:15.984Z,3788
2018-04-12T06:07:16.516Z,3796
2018-04-12T06:08:16.282Z,3804
2018-04-12T06:09:16.045Z,3820
2018-04-12T06:10:16.325Z,3840
2018-04-12T06:11:16.343Z,3856
2018-04-12T06:12:16.350Z,3892
2018-04-12T06:13:16.696Z,3920
2018-04-12T06:14:16.401Z,3944
2018-04-12T06:15:16.419Z,3976
2018-04-12T06:16:16.692Z,4004
2018-04-12T06:17:16.473Z,4028
2018-04-12T06:18:16.798Z,4064
2018-04-12T06:19:16.765Z,4088
2018-04-12T06:20:16.782Z,4124
2018-04-12T06:21:16.809Z,4152
2018-04-12T06:22:16.845Z,4176
2018-04-12T06:23:16.599Z,4212
2018-04-12T06:24:16.871Z,4256
2018-04-12T06:25:16.914Z,4284
2018-04-12T06:26:16.678Z,4320
2018-04-12T06:27:16.707Z,4356
2018-04-12T06:28:16.985Z,4384
2018-04-12T06:29:16.495Z,4408
2018-04-12T06:30:17.031Z,4460
2018-04-12T06:31:16.802Z,4500
2018-04-12T06:32:17.070Z,4528
2018-04-12T06:33:16.645Z,4576
2018-04-12T06:34:16.860Z,4588
2018-04-12T06:35:17.149Z,4620
2018-04-12T06:36:16.651Z,4652
2018-04-12T06:37:17.189Z,4684
2018-04-12T06:38:16.699Z,4700
2018-04-12T06:39:17.230Z,4732
2018-04-12T06:40:17.000Z,4776
2018-04-12T06:41:17.282Z,4816
2018-04-12T06:42:17.046Z,4852
2018-04-12T06:43:17.118Z,4892
2018-04-12T06:44:17.094Z,4908
2018-04-12T06:45:17.139Z,4892
2018-04-12T06:46:17.139Z,4952
2018-04-12T06:47:17.420Z,4992
2018-04-12T06:48:17.197Z,5012
2018-04-12T06:49:17.200Z,5048
2018-04-12T06:50:17.489Z,5104
2018-04-12T06:51:17.501Z,5152
2018-04-12T06:52:17.526Z,5188
2018-04-12T06:53:17.290Z,5212
2018-04-12T06:54:17.327Z,5252
2018-04-12T06:55:17.340Z,5280
2018-04-12T06:56:17.361Z,5304
2018-04-12T06:57:17.401Z,5356
2018-04-12T06:58:17.459Z,5376
2018-04-12T06:59:17.433Z,5404
2018-04-12T07:00:17.708Z,5444
2018-04-12T07:01:17.473Z,5480
2018-04-12T07:02:17.755Z,5516
2018-04-12T07:03:17.530Z,5576
2018-04-12T07:04:17.796Z,5628
2018-04-12T07:05:17.833Z,5684
2018-04-12T07:06:17.599Z,5752
2018-04-12T07:07:17.612Z,5828
2018-04-12T07:08:17.639Z,5888
2018-04-12T07:09:17.931Z,5988
2018-04-12T07:10:17.681Z,6084
2018-04-12T07:11:17.963Z,6200
2018-04-12T07:12:17.989Z,5740
2018-04-12T07:13:18.066Z,6404
2018-04-12T07:14:17.527Z,6508
2018-04-12T07:15:18.062Z,6612
2018-04-12T07:16:18.020Z,6756
2018-04-12T07:17:17.898Z,6760
2018-04-12T07:18:18.124Z,5848
2018-04-12T07:19:17.982Z,6176
2018-04-12T07:20:17.946Z,5244
2018-04-12T07:21:18.194Z,6776
2018-04-12T07:22:17.964Z,7100
2018-04-12T07:23:18.249Z,8256
2018-04-12T07:24:18.268Z,7288
2018-04-12T07:25:18.292Z,8720
2018-04-12T07:26:17.795Z,8504
2018-04-12T07:27:17.819Z,8996
2018-04-12T07:28:17.894Z,9108
2018-04-12T07:29:18.370Z,6948
2018-04-12T07:30:18.150Z,6212
2018-04-12T07:31:18.425Z,5824
2018-04-12T07:32:18.503Z,5532
2018-04-12T07:33:18.470Z,5880
2018-04-12T07:34:18.493Z,7856
2018-04-12T07:35:18.535Z,7776
2018-04-12T07:36:18.565Z,6532
2018-04-12T07:37:18.582Z,7524
2018-04-12T07:38:18.675Z,7756
2018-04-12T07:39:18.629Z,8132
2018-04-12T07:40:18.393Z,8492
2018-04-12T07:41:18.689Z,8864
2018-04-12T07:42:18.701Z,9272
2018-04-12T07:43:18.534Z,9252
2018-04-12T07:44:18.771Z,6228
2018-04-12T07:45:18.782Z,6212
2018-04-12T07:46:18.292Z,7700
2018-04-12T07:47:18.578Z,6176
2018-04-12T07:48:18.596Z,6320
2018-04-12T07:49:18.881Z,7504
2018-04-12T07:50:18.900Z,7604
2018-04-12T07:51:18.922Z,8748
2018-04-12T07:52:18.696Z,7592
2018-04-12T07:53:18.977Z,7592
2018-04-12T07:54:18.752Z,8012
2018-04-12T07:55:19.029Z,7736
2018-04-12T07:56:19.050Z,7444
2018-04-12T07:57:18.309Z,7172
2018-04-12T07:58:19.151Z,6972
2018-04-12T07:59:19.124Z,6872
2018-04-12T08:00:18.939Z,6880
2018-04-12T08:01:18.666Z,6884
2018-04-12T08:02:18.962Z,6856
2018-04-12T08:03:18.973Z,6864
2018-04-12T08:04:19.261Z,6900
2018-04-12T08:05:19.277Z,6916
2018-04-12T08:06:19.306Z,6916
2018-04-12T08:07:19.336Z,6924
2018-04-12T08:08:19.107Z,6908
2018-04-12T08:09:18.611Z,6908
2018-04-12T08:10:18.892Z,6912
2018-04-12T08:11:19.237Z,6900
2018-04-12T08:12:18.941Z,6884
2018-04-12T08:13:19.537Z,6884
2018-04-12T08:14:18.991Z,6888
2018-04-12T08:15:19.539Z,6892
2018-04-12T08:16:19.746Z,6908
2018-04-12T08:17:19.305Z,6956
2018-04-12T08:18:19.098Z,6972
2018-04-12T08:19:19.374Z,6968
2018-04-12T08:20:19.659Z,6956
2018-04-12T08:21:19.178Z,7024
2018-04-12T08:22:19.206Z,7128
2018-04-12T08:23:19.487Z,7140
2018-04-12T08:24:19.506Z,7200
2018-04-12T08:25:19.282Z,7200
2018-04-12T08:26:19.302Z,7152
2018-04-12T08:27:19.836Z,7120
2018-04-12T08:28:19.662Z,7160
2018-04-12T08:29:19.636Z,7180
2018-04-12T08:30:19.667Z,7164
2018-04-12T08:31:19.690Z,7204
2018-04-12T08:32:19.979Z,7132
2018-04-12T08:33:19.742Z,7488
2018-04-12T08:34:19.765Z,7644
2018-04-12T08:35:20.042Z,7800
2018-04-12T08:36:19.815Z,8152
2018-04-12T08:37:19.854Z,8420
2018-04-12T08:38:19.864Z,8664
2018-04-12T08:39:19.901Z,8824
2018-04-12T08:40:19.925Z,9092
2018-04-12T08:41:19.947Z,9304
2018-04-12T08:42:19.973Z,9620
2018-04-12T08:43:19.797Z,9948
2018-04-12T08:44:20.281Z,10392
2018-04-12T08:45:20.307Z,10496
2018-04-12T08:46:20.075Z,10304
2018-04-12T08:47:20.362Z,10704
2018-04-12T08:48:19.933Z,10844
2018-04-12T08:49:20.412Z,10288
2018-04-12T08:50:20.446Z,10492
2018-04-12T08:51:20.472Z,10280
2018-04-12T08:52:20.238Z,10248
2018-04-12T08:53:20.525Z,10148
2018-04-12T08:54:20.549Z,10340
2018-04-12T08:55:20.580Z,10496
2018-04-12T08:56:20.344Z,10684
2018-04-12T08:57:20.682Z,10880
2018-04-12T08:58:20.707Z,11412
2018-04-12T08:59:20.674Z,11760
2018-04-12T09:00:20.714Z,11152
2018-04-12T09:01:20.580Z,10984
2018-04-12T09:02:20.759Z,11476
2018-04-12T09:03:20.800Z,11108
2018-04-12T09:04:20.566Z,10908
2018-04-12T09:05:20.591Z,10628
2018-04-12T09:06:20.876Z,10476
2018-04-12T09:07:20.636Z,10328
2018-04-12T09:08:20.411Z,10256
2018-04-12T09:09:20.924Z,10148
2018-04-12T09:10:20.706Z,10020
2018-04-12T09:11:20.987Z,9880
2018-04-12T09:12:20.254Z,9768
2018-04-12T09:13:21.085Z,9744
2018-04-12T09:14:20.819Z,9776
2018-04-12T09:15:20.838Z,9856
2018-04-12T09:16:20.618Z,9976
2018-04-12T09:17:20.894Z,10032
2018-04-12T09:18:21.173Z,10200
2018-04-12T09:19:21.203Z,10968
2018-04-12T09:20:21.315Z,10788
2018-04-12T09:21:21.029Z,11072
2018-04-12T09:22:21.307Z,11456
2018-04-12T09:23:21.079Z,11960
2018-04-12T09:24:21.362Z,13396
2018-04-12T09:25:21.147Z,13424
2018-04-12T09:26:21.414Z,13564
2018-04-12T09:27:21.452Z,13244
2018-04-12T09:28:21.371Z,13664
2018-04-12T09:29:21.494Z,13900
2018-04-12T09:30:21.270Z,14152
2018-04-12T09:31:21.554Z,14400
2018-04-12T09:32:21.331Z,19392
2018-04-12T09:33:20.862Z,19392
2018-04-12T09:34:21.392Z,18496
2018-04-12T09:35:21.419Z,18368
2018-04-12T09:36:21.199Z,16192
2018-04-12T09:37:21.730Z,15840
2018-04-12T09:38:21.508Z,14016
2018-04-12T09:39:21.797Z,13848
2018-04-12T09:40:21.317Z,13560
2018-04-12T09:41:21.937Z,14240
2018-04-12T09:42:21.635Z,14044
2018-04-12T09:43:21.713Z,13992
2018-04-12T09:44:21.677Z,16064
2018-04-12T09:45:21.965Z,19520
2018-04-12T09:46:22.138Z,16416
2018-04-12T09:47:21.770Z,16928
2018-04-12T09:48:22.147Z,17792
2018-04-12T09:49:22.487Z,16416
2018-04-12T09:50:22.114Z,14428
2018-04-12T09:51:21.632Z,13836
2018-04-12T09:52:22.173Z,21312
2018-04-12T09:53:21.942Z,22976
2018-04-12T09:54:22.229Z,22656
2018-04-12T09:55:22.264Z,20992
2018-04-12T09:56:22.296Z,19840
2018-04-12T09:57:22.321Z,18528
2018-04-12T09:58:22.101Z,18080
2018-04-12T09:59:22.398Z,17376
2018-04-12T10:00:21.906Z,17504
2018-04-12T10:01:22.220Z,17888
2018-04-12T10:02:22.016Z,19136
2018-04-12T10:03:22.506Z,18560
2018-04-12T10:04:22.535Z,16640
2018-04-12T10:05:22.582Z,14460
2018-04-12T10:06:22.601Z,14916
2018-04-12T10:07:22.122Z,15456
2018-04-12T10:08:22.666Z,14876
2018-04-12T10:09:22.193Z,14724
2018-04-12T10:10:22.732Z,13696
2018-04-12T10:11:22.503Z,13208
2018-04-12T10:12:22.533Z,13136
2018-04-12T10:13:22.565Z,13320
2018-04-12T10:14:22.340Z,13956
2018-04-12T10:15:22.373Z,15840
2018-04-12T10:16:22.406Z,19264
2018-04-12T10:17:23.080Z,17920
2018-04-12T10:18:22.722Z,24352
2018-04-12T10:19:23.003Z,24480
2018-04-12T10:20:23.038Z,16672
2018-04-12T10:21:22.811Z,17088
2018-04-12T10:22:23.097Z,17792
2018-04-12T10:23:22.872Z,20992
2018-04-12T10:24:23.167Z,16224
2018-04-12T10:25:23.190Z,12844
2018-04-12T10:26:22.968Z,13736
2018-04-12T10:27:22.995Z,18464
2018-04-12T10:28:23.025Z,26848
2018-04-12T10:29:23.071Z,23232
2018-04-12T10:30:23.346Z,24064
2018-04-12T10:31:23.373Z,22816
2018-04-12T10:32:23.452Z,21120
2018-04-12T10:33:23.432Z,21696
2018-04-12T10:34:23.470Z,18464
2018-04-12T10:35:23.245Z,14352
2018-04-12T10:36:23.019Z,13732
2018-04-12T10:37:23.301Z,13384
2018-04-12T10:38:23.334Z,13232
2018-04-12T10:39:23.437Z,14480
2018-04-12T10:40:23.402Z,19744
2018-04-12T10:41:23.681Z,22976
2018-04-12T10:42:23.760Z,21376
2018-04-12T10:43:23.492Z,19008
2018-04-12T10:44:23.597Z,16896
2018-04-12T10:45:23.801Z,16992
2018-04-12T10:46:23.582Z,14656
2018-04-12T10:47:23.356Z,14244
2018-04-12T10:48:23.914Z,14284
2018-04-12T10:49:23.666Z,13940
2018-04-12T10:50:23.968Z,14032
2018-04-12T10:51:23.732Z,15024
2018-04-12T10:52:23.759Z,19104
2018-04-12T10:53:23.822Z,22144
2018-04-12T10:54:23.823Z,19712
2018-04-12T10:55:23.601Z,18496
2018-04-12T10:56:24.138Z,21312
2018-04-12T10:57:23.970Z,15040
2018-04-12T10:58:23.945Z,24608
2018-04-12T10:59:24.424Z,33312
2018-04-12T11:00:24.249Z,30688
2018-04-12T11:01:24.284Z,36672
2018-04-12T11:02:24.065Z,36224
2018-04-12T11:03:24.155Z,35712
2018-04-12T11:04:24.141Z,36672
2018-04-12T11:05:24.177Z,34432
2018-04-12T11:06:24.205Z,26304
2018-04-12T11:07:24.244Z,21888
2018-04-12T11:08:24.532Z,18528
2018-04-12T11:09:24.555Z,23456
2018-04-12T11:10:23.827Z,25664
2018-04-12T11:11:24.366Z,24640
2018-04-12T11:12:24.306Z,27232
2018-04-12T11:13:24.674Z,40960
2018-04-12T11:14:24.459Z,43104
2018-04-12T11:15:24.744Z,42432
2018-04-12T11:16:24.542Z,32352
2018-04-12T11:17:24.825Z,23936
2018-04-12T11:18:25.180Z,22080
2018-04-12T11:19:24.380Z,21344
2018-04-12T11:20:24.677Z,16544
2018-04-12T11:21:24.715Z,14352
2018-04-12T11:22:24.735Z,13776
2018-04-12T11:23:25.169Z,14016
2018-04-12T11:24:24.799Z,13404
2018-04-12T11:25:24.931Z,13620
2018-04-12T11:26:24.617Z,13536
2018-04-12T11:27:24.902Z,14472
2018-04-12T11:28:24.930Z,18880
2018-04-12T11:29:25.116Z,23488
2018-04-12T11:30:25.262Z,30368
2018-04-12T11:31:24.791Z,36864
2018-04-12T11:32:25.071Z,21536
2018-04-12T11:33:25.403Z,36512
2018-04-12T11:34:25.646Z,31680
2018-04-12T11:35:25.548Z,30080
2018-04-12T11:36:25.448Z,16704
2018-04-12T11:37:25.484Z,17120
2018-04-12T11:38:25.265Z,18976
2018-04-12T11:39:25.294Z,30816
2018-04-12T11:40:25.089Z,46272
2018-04-12T11:41:25.360Z,30912
2018-04-12T11:42:25.647Z,22880
2018-04-12T11:43:25.687Z,19584
2018-04-12T11:44:25.760Z,17728
2018-04-12T11:45:25.334Z,14144
2018-04-12T11:46:25.518Z,13272
2018-04-12T11:47:25.561Z,13384
2018-04-12T11:48:25.577Z,13932
2018-04-12T11:49:25.630Z,16000
2018-04-12T11:50:25.931Z,20160
2018-04-12T11:51:25.954Z,23040
2018-04-12T11:52:25.973Z,25632
2018-04-12T11:53:25.752Z,17472
2018-04-12T11:54:25.785Z,23936
2018-04-12T11:55:25.814Z,21504
2018-04-12T11:56:25.852Z,27968
2018-04-12T11:57:25.874Z,31808
2018-04-12T11:58:25.653Z,23456
2018-04-12T11:59:25.997Z,22592
2018-04-12T12:00:25.983Z,23168
2018-04-12T12:01:25.749Z,23680
2018-04-12T12:02:26.438Z,28672
2018-04-12T12:03:26.119Z,24256
2018-04-12T12:04:26.348Z,21632
2018-04-12T12:05:26.383Z,21728
2018-04-12T12:06:26.418Z,42784
2018-04-12T12:07:26.446Z,39616
2018-04-12T12:08:26.230Z,35648
2018-04-12T12:09:26.516Z,46752
2018-04-12T12:10:26.289Z,36256
2018-04-12T12:11:26.321Z,37120
2018-04-12T12:12:26.641Z,33376
2018-04-12T12:13:26.391Z,30720
2018-04-12T12:14:26.476Z,34080
2018-04-12T12:15:26.481Z,25024
2018-04-12T12:16:26.742Z,24608
2018-04-12T12:17:26.524Z,23424
2018-04-12T12:18:26.302Z,22912
2018-04-12T12:19:26.840Z,27616
2018-04-12T12:20:26.861Z,28896
2018-04-12T12:21:26.643Z,30528
2018-04-12T12:22:26.945Z,35040
2018-04-12T12:23:26.715Z,30912
2018-04-12T12:24:26.742Z,31616
2018-04-12T12:25:27.042Z,21600
2018-04-12T12:26:27.084Z,24672
2018-04-12T12:27:27.114Z,29856
2018-04-12T12:28:27.205Z,19904
2018-04-12T12:29:26.977Z,21216
2018-04-12T12:30:27.219Z,38592
2018-04-12T12:31:26.990Z,57056
2018-04-12T12:32:27.025Z,68608
2018-04-12T12:33:27.312Z,35616
2018-04-12T12:34:27.131Z,32704
2018-04-12T12:35:27.119Z,33376
2018-04-12T12:36:26.903Z,61408
2018-04-12T12:37:26.937Z,73952
2018-04-12T12:38:27.227Z,83840
2018-04-12T12:39:27.256Z,56064
2018-04-12T12:40:27.293Z,65824
2018-04-12T12:41:27.574Z,46720
2018-04-12T12:42:27.360Z,44768
2018-04-12T12:43:27.704Z,34752
2018-04-12T12:44:27.734Z,45024
2018-04-12T12:45:27.731Z,33600
2018-04-12T12:46:27.246Z,35424
2018-04-12T12:47:27.540Z,76576
2018-04-12T12:48:27.570Z,77184
2018-04-12T12:49:27.350Z,78368
2018-04-12T12:50:27.618Z,83840
2018-04-12T12:51:27.651Z,79040
2018-04-12T12:52:27.957Z,79136
2018-04-12T12:53:27.981Z,79200
2018-04-12T12:54:28.061Z,75008
2018-04-12T12:55:28.055Z,77088
2018-04-12T12:56:28.102Z,75104
2018-04-12T12:57:28.138Z,74688
2018-04-12T12:58:28.175Z,58752
2018-04-12T12:59:27.718Z,54592
2018-04-12T13:00:27.995Z,55808
2018-04-12T13:01:28.141Z,55712
2018-04-12T13:02:28.315Z,43808
2018-04-12T13:03:28.102Z,40896
2018-04-12T13:04:28.132Z,23648
2018-04-12T13:05:28.176Z,35488
2018-04-12T13:06:28.205Z,33536
2018-04-12T13:07:28.500Z,37696
2018-04-12T13:08:28.535Z,24256
2018-04-12T13:09:28.357Z,22752
2018-04-12T13:10:28.603Z,27488
2018-04-12T13:11:28.637Z,33728
2018-04-12T13:12:28.696Z,23680
2018-04-12T13:13:28.585Z,62112
2018-04-12T13:14:28.754Z,88704
2018-04-12T13:15:28.263Z,94304
2018-04-12T13:16:28.308Z,44864
2018-04-12T13:17:28.594Z,33216
2018-04-12T13:18:28.626Z,23616
2018-04-12T13:19:28.734Z,20032
2018-04-12T13:20:28.951Z,17472
2018-04-12T13:21:28.465Z,15884
2018-04-12T13:22:28.759Z,15104
2018-04-12T13:23:28.531Z,14656
2018-04-12T13:24:29.127Z,14420
2018-04-12T13:25:29.125Z,14644
2018-04-12T13:26:29.222Z,15140
2018-04-12T13:27:28.935Z,15412
2018-04-12T13:28:29.235Z,15392
2018-04-12T13:29:28.744Z,15496
2018-04-12T13:30:29.330Z,15488
2018-04-12T13:31:29.057Z,15520
2018-04-12T13:32:29.360Z,15612
2018-04-12T13:33:29.136Z,16480
2018-04-12T13:34:29.410Z,17312
2018-04-12T13:35:29.196Z,17920
2018-04-12T13:36:29.530Z,19136